createdAt,value
2018-12-17T01:04:22.289Z,5.60
2018-12-17T01:09:26.376Z,6.80
2018-12-17T01:14:29.716Z,7.73
2018-12-17T01:19:33.826Z,8.03
2018-12-17T01:24:37.169Z,5.60
2018-12-17T01:29:41.264Z,7.30
2018-12-17T02:31:45.128Z,10.50
2018-12-17T02:36:48.456Z,10.33
2018-12-17T02:41:51.785Z,10.63
2018-12-17T02:46:55.115Z,8.87
2018-12-17T02:51:58.454Z,7.63
2018-12-17T02:57:01.793Z,7.47
2018-12-17T04:05:26.134Z,6.97
2018-12-17T04:10:29.480Z,7.20
2018-12-17T04:15:32.806Z,8.83
2018-12-17T04:20:36.153Z,7.90
2018-12-17T04:25:39.486Z,8.40
2018-12-17T05:34:04.754Z,7.77
2018-12-17T05:39:08.106Z,7.30
2018-12-17T05:44:12.207Z,6.53
2018-12-17T05:49:15.563Z,6.23
2018-12-17T05:54:18.892Z,6.73
2018-12-17T05:59:28.374Z,6.43
2018-12-17T07:01:28.290Z,5.73
2018-12-17T07:06:31.508Z,5.37
2018-12-17T07:11:34.832Z,5.07
2018-12-17T07:16:39.089Z,5.20
2018-12-17T07:21:42.418Z,5.43
2018-12-17T07:26:46.513Z,5.53
2018-12-17T08:35:13.617Z,7.07
2018-12-17T08:40:17.725Z,7.57
2018-12-17T08:45:21.064Z,6.40
2018-12-17T08:50:25.171Z,7.07
2018-12-17T08:55:28.508Z,6.43
2018-12-17T09:00:31.843Z,7.37
2018-12-17T10:02:38.189Z,6.73
2018-12-17T10:07:41.515Z,5.90
2018-12-17T10:12:44.851Z,5.90
2018-12-17T10:17:48.177Z,5.47
2018-12-17T10:22:51.502Z,6.40
2018-12-17T10:27:54.829Z,6.23
2018-12-17T11:36:18.267Z,7.07
2018-12-17T11:41:21.597Z,6.93
2018-12-17T11:46:24.924Z,6.13
2018-12-17T11:51:28.267Z,5.70
2018-12-17T11:56:37.292Z,5.50
2018-12-17T13:05:05.169Z,4.33
2018-12-17T13:10:08.498Z,4.70
2018-12-17T13:15:12.592Z,4.30
2018-12-17T13:20:15.914Z,4.57
2018-12-17T13:25:19.245Z,3.93
2018-12-17T14:32:13.194Z,3.83
2018-12-17T14:37:16.558Z,3.90
2018-12-17T14:42:19.920Z,3.30
2018-12-17T14:47:23.304Z,3.57
2018-12-17T14:52:26.644Z,3.90
2018-12-17T14:57:30.360Z,3.87
2018-12-17T16:05:53.198Z,3.80
2018-12-17T16:10:56.539Z,4.33
2018-12-17T16:15:59.871Z,4.57
2018-12-17T16:21:03.233Z,4.53
2018-12-17T16:26:06.603Z,4.10
2018-12-17T16:31:10.804Z,4.50
2018-12-17T16:36:14.174Z,4.37
2018-12-17T16:41:17.581Z,4.37
2018-12-17T16:46:20.945Z,4.63
2018-12-17T16:51:24.283Z,4.20
2018-12-17T16:56:27.722Z,5.07
2018-12-17T17:01:31.082Z,3.70
2018-12-17T17:06:34.445Z,3.60
2018-12-17T17:11:37.821Z,3.13
2018-12-17T17:16:41.186Z,3.90
2018-12-17T17:21:44.526Z,3.13
2018-12-17T17:26:48.057Z,3.17
2018-12-17T17:31:52.185Z,3.17
2018-12-17T17:36:56.297Z,3.60
2018-12-17T17:42:06.901Z,3.70
2018-12-17T17:47:12.041Z,3.60
2018-12-17T17:52:16.208Z,3.43
2018-12-17T17:57:19.603Z,3.97
2018-12-17T18:02:22.966Z,4.10
2018-12-17T18:07:26.320Z,3.90
2018-12-17T18:12:30.465Z,4.60
2018-12-17T18:17:33.825Z,4.60
2018-12-17T18:22:37.188Z,4.27
2018-12-17T18:27:41.600Z,5.00
2018-12-17T18:32:44.965Z,4.80
2018-12-17T18:37:48.321Z,6.13
2018-12-17T18:42:51.784Z,5.60
2018-12-17T18:47:55.271Z,5.87
2018-12-17T18:52:58.710Z,6.77
2018-12-17T18:58:02.076Z,6.47
2018-12-17T19:03:05.445Z,7.37
2018-12-17T19:08:08.778Z,7.00
2018-12-17T19:13:12.159Z,6.67
2018-12-17T19:18:23.818Z,6.83
2018-12-17T19:23:27.960Z,7.70
2018-12-17T19:28:31.346Z,7.97
2018-12-17T19:33:35.722Z,7.27
2018-12-17T19:38:40.438Z,7.93
2018-12-17T19:43:44.598Z,7.90
2018-12-17T19:48:55.145Z,7.63
2018-12-17T19:53:59.301Z,7.40
2018-12-17T19:59:02.657Z,8.27
2018-12-17T20:04:06.028Z,8.60
2018-12-17T20:09:22.210Z,8.70
2018-12-17T20:14:27.774Z,7.50
2018-12-17T20:19:31.910Z,8.30
2018-12-17T20:24:39.089Z,8.47
2018-12-17T20:29:42.473Z,8.60
2018-12-17T20:34:45.835Z,7.43
2018-12-17T20:39:49.177Z,8.13
2018-12-17T20:44:52.584Z,7.17
2018-12-17T20:49:56.816Z,7.90
2018-12-17T20:55:02.815Z,7.33
2018-12-17T21:00:07.054Z,7.30
2018-12-17T21:05:10.425Z,6.53
2018-12-17T21:10:13.787Z,7.20
2018-12-17T21:15:17.182Z,8.07
2018-12-17T21:20:26.400Z,7.23
2018-12-17T21:25:29.750Z,8.33
2018-12-17T21:30:33.214Z,7.63
2018-12-17T21:35:36.553Z,8.13
2018-12-17T21:40:39.916Z,7.17
2018-12-17T21:45:43.329Z,7.17
2018-12-17T21:50:47.457Z,7.13
2018-12-17T21:55:50.805Z,7.17
2018-12-17T22:00:54.208Z,7.00
2018-12-17T22:05:57.557Z,7.03
2018-12-17T22:11:00.907Z,6.73
2018-12-17T22:34:35.593Z,6.13
2018-12-17T22:58:12.253Z,5.03
2018-12-17T23:34:56.931Z,5.40
2018-12-17T23:40:01.025Z,4.43
2018-12-17T23:45:04.351Z,4.63
2018-12-17T23:50:07.700Z,3.80
2018-12-17T23:55:11.030Z,3.97
